sensor_id;sensor_type;location;lat;lon;timestamp;P1;durP1;ratioP1;P2;durP2;ratioP2
35745;SDS011;21870;42.812;74.628;2022-11-25T00:00:29;2.20;;;2.00;;
35745;SDS011;21870;42.812;74.628;2022-11-25T00:02:58;2.28;;;2.08;;
35745;SDS011;21870;42.812;74.628;2022-11-25T00:05:24;18.98;;;16.98;;
35745;SDS011;21870;42.812;74.628;2022-11-25T00:07:52;9.27;;;7.13;;
35745;SDS011;21870;42.812;74.628;2022-11-25T00:10:18;3.35;;;2.83;;
35745;SDS011;21870;42.812;74.628;2022-11-25T00:12:44;3.80;;;2.58;;
35745;SDS011;21870;42.812;74.628;2022-11-25T00:15:10;3.13;;;2.83;;
35745;SDS011;21870;42.812;74.628;2022-11-25T00:17:36;3.83;;;2.70;;
35745;SDS011;21870;42.812;74.628;2022-11-25T00:20:02;2.65;;;2.45;;
35745;SDS011;21870;42.812;74.628;2022-11-25T00:22:30;3.38;;;2.58;;
35745;SDS011;21870;42.812;74.628;2022-11-25T00:24:56;3.17;;;2.88;;
35745;SDS011;21870;42.812;74.628;2022-11-25T00:27:22;3.88;;;2.90;;
35745;SDS011;21870;42.812;74.628;2022-11-25T00:29:48;5.82;;;3.20;;
35745;SDS011;21870;42.812;74.628;2022-11-25T00:32:14;4.35;;;3.53;;
35745;SDS011;21870;42.812;74.628;2022-11-25T00:34:40;6.68;;;3.95;;
35745;SDS011;21870;42.812;74.628;2022-11-25T00:37:06;4.65;;;3.63;;
35745;SDS011;21870;42.812;74.628;2022-11-25T00:39:32;7.93;;;4.63;;
35745;SDS011;21870;42.812;74.628;2022-11-25T00:41:58;7.05;;;4.82;;
35745;SDS011;21870;42.812;74.628;2022-11-25T00:44:42;7.40;;;4.75;;
35745;SDS011;21870;42.812;74.628;2022-11-25T00:47:16;10.07;;;5.32;;
35745;SDS011;21870;42.812;74.628;2022-11-25T00:49:47;7.32;;;4.45;;
35745;SDS011;21870;42.812;74.628;2022-11-25T00:52:23;11.05;;;8.45;;
35745;SDS011;21870;42.812;74.628;2022-11-25T00:54:50;9.13;;;5.50;;
35745;SDS011;21870;42.812;74.628;2022-11-25T00:57:18;7.20;;;5.07;;
35745;SDS011;21870;42.812;74.628;2022-11-25T00:59:45;9.00;;;4.95;;
35745;SDS011;21870;42.812;74.628;2022-11-25T01:02:12;9.45;;;5.25;;
35745;SDS011;21870;42.812;74.628;2022-11-25T01:04:39;6.68;;;5.22;;
35745;SDS011;21870;42.812;74.628;2022-11-25T01:07:06;11.32;;;6.00;;
35745;SDS011;21870;42.812;74.628;2022-11-25T01:09:32;11.43;;;5.85;;
35745;SDS011;21870;42.812;74.628;2022-11-25T01:11:58;10.95;;;5.78;;
35745;SDS011;21870;42.812;74.628;2022-11-25T01:14:24;13.88;;;6.50;;
35745;SDS011;21870;42.812;74.628;2022-11-25T01:16:51;16.45;;;6.53;;
35745;SDS011;21870;42.812;74.628;2022-11-25T01:19:17;10.90;;;6.22;;
35745;SDS011;21870;42.812;74.628;2022-11-25T01:21:43;10.55;;;5.50;;
35745;SDS011;21870;42.812;74.628;2022-11-25T01:24:11;9.73;;;6.13;;
35745;SDS011;21870;42.812;74.628;2022-11-25T01:26:39;8.43;;;5.75;;
35745;SDS011;21870;42.812;74.628;2022-11-25T01:29:06;11.98;;;6.85;;
35745;SDS011;21870;42.812;74.628;2022-11-25T01:31:36;10.75;;;6.53;;
35745;SDS011;21870;42.812;74.628;2022-11-25T01:34:05;12.07;;;7.68;;
35745;SDS011;21870;42.812;74.628;2022-11-25T01:36:33;12.77;;;7.97;;
35745;SDS011;21870;42.812;74.628;2022-11-25T01:38:59;17.73;;;8.85;;
35745;SDS011;21870;42.812;74.628;2022-11-25T01:41:30;17.90;;;9.98;;
35745;SDS011;21870;42.812;74.628;2022-11-25T01:44:08;11.80;;;8.85;;
35745;SDS011;21870;42.812;74.628;2022-11-25T01:54:41;23.65;;;9.98;;
35745;SDS011;21870;42.812;74.628;2022-11-25T01:57:13;29.17;;;10.63;;
35745;SDS011;21870;42.812;74.628;2022-11-25T01:59:45;18.02;;;9.73;;
35745;SDS011;21870;42.812;74.628;2022-11-25T02:02:16;18.25;;;10.50;;
35745;SDS011;21870;42.812;74.628;2022-11-25T02:04:43;18.55;;;10.40;;
35745;SDS011;21870;42.812;74.628;2022-11-25T02:07:21;24.10;;;13.05;;
35745;SDS011;21870;42.812;74.628;2022-11-25T02:09:55;18.90;;;11.68;;
35745;SDS011;21870;42.812;74.628;2022-11-25T02:12:22;16.70;;;8.80;;
35745;SDS011;21870;42.812;74.628;2022-11-25T02:14:49;12.57;;;8.70;;
35745;SDS011;21870;42.812;74.628;2022-11-25T02:17:16;14.15;;;8.25;;
35745;SDS011;21870;42.812;74.628;2022-11-25T02:19:59;9.88;;;7.78;;
35745;SDS011;21870;42.812;74.628;2022-11-25T02:22:40;11.00;;;9.07;;
35745;SDS011;21870;42.812;74.628;2022-11-25T02:25:13;12.63;;;8.48;;
35745;SDS011;21870;42.812;74.628;2022-11-25T02:28:00;9.30;;;7.47;;
35745;SDS011;21870;42.812;74.628;2022-11-25T02:30:30;12.05;;;7.82;;
35745;SDS011;21870;42.812;74.628;2022-11-25T02:32:57;11.23;;;7.95;;
35745;SDS011;21870;42.812;74.628;2022-11-25T02:35:29;8.75;;;7.43;;
35745;SDS011;21870;42.812;74.628;2022-11-25T02:38:00;10.82;;;8.40;;
35745;SDS011;21870;42.812;74.628;2022-11-25T02:43:14;10.85;;;7.07;;
35745;SDS011;21870;42.812;74.628;2022-11-25T02:48:31;12.30;;;7.95;;
35745;SDS011;21870;42.812;74.628;2022-11-25T02:50:59;12.70;;;8.05;;
35745;SDS011;21870;42.812;74.628;2022-11-25T02:53:25;12.52;;;7.20;;
35745;SDS011;21870;42.812;74.628;2022-11-25T02:55:51;9.38;;;6.55;;
35745;SDS011;21870;42.812;74.628;2022-11-25T02:58:17;11.30;;;7.38;;
35745;SDS011;21870;42.812;74.628;2022-11-25T03:00:45;10.80;;;7.40;;
35745;SDS011;21870;42.812;74.628;2022-11-25T03:03:11;11.85;;;7.38;;
35745;SDS011;21870;42.812;74.628;2022-11-25T03:05:38;9.13;;;7.20;;
35745;SDS011;21870;42.812;74.628;2022-11-25T03:08:05;11.35;;;7.80;;
35745;SDS011;21870;42.812;74.628;2022-11-25T03:10:31;13.07;;;7.70;;
35745;SDS011;21870;42.812;74.628;2022-11-25T03:12:58;11.80;;;7.82;;
35745;SDS011;21870;42.812;74.628;2022-11-25T03:15:24;9.82;;;7.57;;
35745;SDS011;21870;42.812;74.628;2022-11-25T03:17:50;8.35;;;7.55;;
35745;SDS011;21870;42.812;74.628;2022-11-25T03:20:17;9.98;;;7.15;;
35745;SDS011;21870;42.812;74.628;2022-11-25T03:22:44;9.43;;;7.15;;
35745;SDS011;21870;42.812;74.628;2022-11-25T03:25:11;8.98;;;7.00;;
35745;SDS011;21870;42.812;74.628;2022-11-25T03:27:39;8.38;;;7.07;;
35745;SDS011;21870;42.812;74.628;2022-11-25T03:30:10;10.80;;;7.45;;
35745;SDS011;21870;42.812;74.628;2022-11-25T03:32:39;14.30;;;8.55;;
35745;SDS011;21870;42.812;74.628;2022-11-25T03:35:06;15.90;;;8.82;;
35745;SDS011;21870;42.812;74.628;2022-11-25T03:37:33;20.02;;;9.50;;
35745;SDS011;21870;42.812;74.628;2022-11-25T03:40:00;17.70;;;9.07;;
35745;SDS011;21870;42.812;74.628;2022-11-25T03:42:26;14.40;;;8.35;;
35745;SDS011;21870;42.812;74.628;2022-11-25T03:44:52;13.57;;;9.35;;
35745;SDS011;21870;42.812;74.628;2022-11-25T03:47:18;27.58;;;10.63;;
35745;SDS011;21870;42.812;74.628;2022-11-25T03:49:44;24.17;;;9.27;;
35745;SDS011;21870;42.812;74.628;2022-11-25T03:52:10;28.70;;;11.25;;
35745;SDS011;21870;42.812;74.628;2022-11-25T03:54:36;25.13;;;11.18;;
35745;SDS011;21870;42.812;74.628;2022-11-25T03:57:02;23.88;;;12.57;;
35745;SDS011;21870;42.812;74.628;2022-11-25T03:59:28;24.65;;;12.90;;
35745;SDS011;21870;42.812;74.628;2022-11-25T04:01:54;22.23;;;11.32;;
35745;SDS011;21870;42.812;74.628;2022-11-25T04:04:20;29.42;;;12.15;;
35745;SDS011;21870;42.812;74.628;2022-11-25T04:06:47;29.70;;;12.68;;
35745;SDS011;21870;42.812;74.628;2022-11-25T04:09:14;33.40;;;16.13;;
35745;SDS011;21870;42.812;74.628;2022-11-25T04:11:40;24.15;;;15.18;;
35745;SDS011;21870;42.812;74.628;2022-11-25T04:14:25;28.25;;;17.95;;
35745;SDS011;21870;42.812;74.628;2022-11-25T04:16:51;30.35;;;18.45;;
35745;SDS011;21870;42.812;74.628;2022-11-25T04:19:17;36.53;;;19.63;;
35745;SDS011;21870;42.812;74.628;2022-11-25T04:21:43;27.88;;;17.52;;
35745;SDS011;21870;42.812;74.628;2022-11-25T04:24:09;41.80;;;17.52;;
35745;SDS011;21870;42.812;74.628;2022-11-25T04:26:35;32.25;;;19.02;;
35745;SDS011;21870;42.812;74.628;2022-11-25T04:29:02;32.38;;;19.77;;
35745;SDS011;21870;42.812;74.628;2022-11-25T04:31:28;32.60;;;19.27;;
35745;SDS011;21870;42.812;74.628;2022-11-25T04:33:54;35.90;;;20.30;;
35745;SDS011;21870;42.812;74.628;2022-11-25T04:36:20;36.28;;;20.15;;
35745;SDS011;21870;42.812;74.628;2022-11-25T04:38:46;31.10;;;18.05;;
35745;SDS011;21870;42.812;74.628;2022-11-25T04:41:13;32.45;;;19.27;;
35745;SDS011;21870;42.812;74.628;2022-11-25T04:43:39;35.80;;;21.70;;
35745;SDS011;21870;42.812;74.628;2022-11-25T04:46:05;36.78;;;21.00;;
35745;SDS011;21870;42.812;74.628;2022-11-25T04:48:31;35.63;;;22.50;;
35745;SDS011;21870;42.812;74.628;2022-11-25T04:50:57;35.42;;;21.55;;
35745;SDS011;21870;42.812;74.628;2022-11-25T04:53:23;34.63;;;18.00;;
35745;SDS011;21870;42.812;74.628;2022-11-25T04:55:49;37.33;;;18.02;;
35745;SDS011;21870;42.812;74.628;2022-11-25T04:58:15;24.77;;;16.40;;
35745;SDS011;21870;42.812;74.628;2022-11-25T05:01:01;31.23;;;18.45;;
35745;SDS011;21870;42.812;74.628;2022-11-25T05:03:27;29.05;;;17.48;;
35745;SDS011;21870;42.812;74.628;2022-11-25T05:05:54;32.15;;;17.35;;
35745;SDS011;21870;42.812;74.628;2022-11-25T05:08:20;27.88;;;17.38;;
35745;SDS011;21870;42.812;74.628;2022-11-25T05:10:46;26.75;;;16.33;;
35745;SDS011;21870;42.812;74.628;2022-11-25T05:13:12;28.15;;;17.52;;
35745;SDS011;21870;42.812;74.628;2022-11-25T05:15:38;35.20;;;16.45;;
35745;SDS011;21870;42.812;74.628;2022-11-25T05:18:04;27.27;;;15.45;;
35745;SDS011;21870;42.812;74.628;2022-11-25T05:20:31;23.60;;;13.35;;
35745;SDS011;21870;42.812;74.628;2022-11-25T05:22:57;23.88;;;13.52;;
35745;SDS011;21870;42.812;74.628;2022-11-25T05:25:23;23.20;;;11.52;;
35745;SDS011;21870;42.812;74.628;2022-11-25T05:27:50;25.83;;;11.80;;
35745;SDS011;21870;42.812;74.628;2022-11-25T05:30:16;23.98;;;9.65;;
35745;SDS011;21870;42.812;74.628;2022-11-25T05:32:43;13.93;;;8.77;;
35745;SDS011;21870;42.812;74.628;2022-11-25T05:35:09;17.98;;;9.75;;
35745;SDS011;21870;42.812;74.628;2022-11-25T05:37:35;13.70;;;7.88;;
35745;SDS011;21870;42.812;74.628;2022-11-25T05:40:03;19.83;;;8.98;;
35745;SDS011;21870;42.812;74.628;2022-11-25T05:42:30;24.42;;;8.88;;
35745;SDS011;21870;42.812;74.628;2022-11-25T05:44:56;19.50;;;9.20;;
35745;SDS011;21870;42.812;74.628;2022-11-25T05:47:22;15.05;;;9.32;;
35745;SDS011;21870;42.812;74.628;2022-11-25T05:49:48;16.38;;;8.38;;
35745;SDS011;21870;42.812;74.628;2022-11-25T05:52:14;17.52;;;8.02;;
35745;SDS011;21870;42.812;74.628;2022-11-25T05:54:41;19.45;;;9.60;;
35745;SDS011;21870;42.812;74.628;2022-11-25T05:57:07;14.20;;;8.60;;
35745;SDS011;21870;42.812;74.628;2022-11-25T05:59:33;24.25;;;8.32;;
35745;SDS011;21870;42.812;74.628;2022-11-25T06:01:59;15.40;;;8.43;;
35745;SDS011;21870;42.812;74.628;2022-11-25T06:04:25;13.40;;;6.93;;
35745;SDS011;21870;42.812;74.628;2022-11-25T06:06:51;13.75;;;6.53;;
35745;SDS011;21870;42.812;74.628;2022-11-25T06:09:17;13.55;;;8.00;;
35745;SDS011;21870;42.812;74.628;2022-11-25T06:11:43;9.88;;;6.65;;
35745;SDS011;21870;42.812;74.628;2022-11-25T06:14:09;13.85;;;7.45;;
35745;SDS011;21870;42.812;74.628;2022-11-25T06:16:35;15.50;;;7.93;;
35745;SDS011;21870;42.812;74.628;2022-11-25T06:19:02;13.90;;;7.60;;
35745;SDS011;21870;42.812;74.628;2022-11-25T06:21:30;13.52;;;7.50;;
35745;SDS011;21870;42.812;74.628;2022-11-25T06:23:57;21.00;;;10.05;;
35745;SDS011;21870;42.812;74.628;2022-11-25T06:26:23;22.40;;;8.57;;
35745;SDS011;21870;42.812;74.628;2022-11-25T06:28:51;14.98;;;8.07;;
35745;SDS011;21870;42.812;74.628;2022-11-25T06:31:19;26.63;;;9.23;;
35745;SDS011;21870;42.812;74.628;2022-11-25T06:33:52;19.60;;;8.13;;
35745;SDS011;21870;42.812;74.628;2022-11-25T06:36:22;14.75;;;8.68;;
35745;SDS011;21870;42.812;74.628;2022-11-25T06:38:49;18.55;;;8.27;;
35745;SDS011;21870;42.812;74.628;2022-11-25T06:41:19;25.13;;;11.23;;
35745;SDS011;21870;42.812;74.628;2022-11-25T06:43:46;20.30;;;7.85;;
35745;SDS011;21870;42.812;74.628;2022-11-25T06:46:13;15.18;;;8.00;;
35745;SDS011;21870;42.812;74.628;2022-11-25T06:48:40;17.48;;;7.78;;
35745;SDS011;21870;42.812;74.628;2022-11-25T06:51:07;19.73;;;9.32;;
35745;SDS011;21870;42.812;74.628;2022-11-25T06:53:36;21.25;;;9.80;;
35745;SDS011;21870;42.812;74.628;2022-11-25T06:56:16;15.93;;;7.85;;
35745;SDS011;21870;42.812;74.628;2022-11-25T06:58:47;28.60;;;8.38;;
35745;SDS011;21870;42.812;74.628;2022-11-25T07:01:21;23.02;;;8.70;;
35745;SDS011;21870;42.812;74.628;2022-11-25T07:03:50;31.00;;;8.55;;
35745;SDS011;21870;42.812;74.628;2022-11-25T07:06:18;19.08;;;8.68;;
35745;SDS011;21870;42.812;74.628;2022-11-25T07:08:45;18.83;;;7.78;;
35745;SDS011;21870;42.812;74.628;2022-11-25T07:13:43;17.83;;;6.85;;
35745;SDS011;21870;42.812;74.628;2022-11-25T07:16:09;22.40;;;7.78;;
35745;SDS011;21870;42.812;74.628;2022-11-25T07:18:36;21.23;;;7.80;;
35745;SDS011;21870;42.812;74.628;2022-11-25T07:23:32;17.60;;;8.40;;
35745;SDS011;21870;42.812;74.628;2022-11-25T07:26:00;16.45;;;8.32;;
35745;SDS011;21870;42.812;74.628;2022-11-25T07:28:30;21.88;;;8.98;;
35745;SDS011;21870;42.812;74.628;2022-11-25T07:31:02;22.20;;;8.65;;
35745;SDS011;21870;42.812;74.628;2022-11-25T07:33:32;17.60;;;7.65;;
35745;SDS011;21870;42.812;74.628;2022-11-25T07:36:03;20.05;;;8.02;;
35745;SDS011;21870;42.812;74.628;2022-11-25T07:38:31;19.98;;;8.52;;
35745;SDS011;21870;42.812;74.628;2022-11-25T07:41:04;23.20;;;7.15;;
35745;SDS011;21870;42.812;74.628;2022-11-25T07:43:35;22.95;;;9.48;;
35745;SDS011;21870;42.812;74.628;2022-11-25T07:46:18;19.40;;;7.75;;
35745;SDS011;21870;42.812;74.628;2022-11-25T07:49:05;19.38;;;7.55;;
35745;SDS011;21870;42.812;74.628;2022-11-25T07:51:37;18.77;;;8.02;;
35745;SDS011;21870;42.812;74.628;2022-11-25T07:54:06;18.27;;;7.38;;
35745;SDS011;21870;42.812;74.628;2022-11-25T07:56:34;21.77;;;8.70;;
35745;SDS011;21870;42.812;74.628;2022-11-25T07:59:02;17.25;;;7.53;;
35745;SDS011;21870;42.812;74.628;2022-11-25T08:01:29;16.05;;;8.18;;
35745;SDS011;21870;42.812;74.628;2022-11-25T08:03:55;17.70;;;8.05;;
35745;SDS011;21870;42.812;74.628;2022-11-25T08:06:23;21.67;;;10.10;;
35745;SDS011;21870;42.812;74.628;2022-11-25T08:08:51;23.08;;;8.90;;
35745;SDS011;21870;42.812;74.628;2022-11-25T08:11:23;20.25;;;8.57;;
35745;SDS011;21870;42.812;74.628;2022-11-25T08:13:52;21.08;;;8.38;;
35745;SDS011;21870;42.812;74.628;2022-11-25T08:16:19;17.00;;;9.18;;
35745;SDS011;21870;42.812;74.628;2022-11-25T08:18:47;21.67;;;8.50;;
35745;SDS011;21870;42.812;74.628;2022-11-25T08:21:14;14.63;;;7.75;;
35745;SDS011;21870;42.812;74.628;2022-11-25T08:23:41;22.98;;;8.45;;
35745;SDS011;21870;42.812;74.628;2022-11-25T08:26:09;17.55;;;8.05;;
35745;SDS011;21870;42.812;74.628;2022-11-25T08:28:37;18.77;;;8.07;;
35745;SDS011;21870;42.812;74.628;2022-11-25T08:31:15;20.58;;;8.43;;
35745;SDS011;21870;42.812;74.628;2022-11-25T08:33:43;16.85;;;7.82;;
35745;SDS011;21870;42.812;74.628;2022-11-25T08:36:10;16.83;;;7.97;;
35745;SDS011;21870;42.812;74.628;2022-11-25T08:38:37;17.75;;;8.57;;
35745;SDS011;21870;42.812;74.628;2022-11-25T08:41:08;23.83;;;8.82;;
35745;SDS011;21870;42.812;74.628;2022-11-25T08:43:43;24.98;;;8.77;;
35745;SDS011;21870;42.812;74.628;2022-11-25T08:46:13;20.73;;;8.10;;
35745;SDS011;21870;42.812;74.628;2022-11-25T08:48:41;30.80;;;9.48;;
35745;SDS011;21870;42.812;74.628;2022-11-25T08:51:10;31.00;;;9.65;;
35745;SDS011;21870;42.812;74.628;2022-11-25T08:53:44;21.05;;;9.35;;
35745;SDS011;21870;42.812;74.628;2022-11-25T08:56:11;16.50;;;8.68;;
35745;SDS011;21870;42.812;74.628;2022-11-25T08:58:39;16.30;;;7.25;;
35745;SDS011;21870;42.812;74.628;2022-11-25T09:01:05;22.45;;;8.48;;
35745;SDS011;21870;42.812;74.628;2022-11-25T09:03:33;21.48;;;8.00;;
35745;SDS011;21870;42.812;74.628;2022-11-25T09:06:01;22.38;;;9.20;;
35745;SDS011;21870;42.812;74.628;2022-11-25T09:08:28;27.88;;;9.15;;
35745;SDS011;21870;42.812;74.628;2022-11-25T09:10:55;24.60;;;8.70;;
35745;SDS011;21870;42.812;74.628;2022-11-25T09:13:22;19.58;;;8.30;;
35745;SDS011;21870;42.812;74.628;2022-11-25T09:15:48;20.83;;;8.73;;
35745;SDS011;21870;42.812;74.628;2022-11-25T09:18:14;23.60;;;9.00;;
35745;SDS011;21870;42.812;74.628;2022-11-25T09:20:43;21.00;;;9.18;;
35745;SDS011;21870;42.812;74.628;2022-11-25T09:23:09;31.13;;;8.85;;
35745;SDS011;21870;42.812;74.628;2022-11-25T09:25:35;32.15;;;9.65;;
35745;SDS011;21870;42.812;74.628;2022-11-25T09:28:01;32.40;;;13.65;;
35745;SDS011;21870;42.812;74.628;2022-11-25T09:30:28;52.22;;;17.23;;
35745;SDS011;21870;42.812;74.628;2022-11-25T09:32:54;34.58;;;16.20;;
35745;SDS011;21870;42.812;74.628;2022-11-25T09:35:21;40.15;;;18.83;;
35745;SDS011;21870;42.812;74.628;2022-11-25T09:37:48;50.60;;;21.13;;
35745;SDS011;21870;42.812;74.628;2022-11-25T09:45:57;36.90;;;15.55;;
35745;SDS011;21870;42.812;74.628;2022-11-25T09:55:14;31.65;;;13.07;;
35745;SDS011;21870;42.812;74.628;2022-11-25T09:57:22;34.45;;;12.70;;
35745;SDS011;21870;42.812;74.628;2022-11-25T10:00:13;27.55;;;12.20;;
35745;SDS011;21870;42.812;74.628;2022-11-25T10:05:26;40.58;;;11.70;;
35745;SDS011;21870;42.812;74.628;2022-11-25T10:08:00;24.77;;;11.48;;
35745;SDS011;21870;42.812;74.628;2022-11-25T10:10:41;33.83;;;11.15;;
35745;SDS011;21870;42.812;74.628;2022-11-25T10:13:14;35.78;;;11.68;;
35745;SDS011;21870;42.812;74.628;2022-11-25T10:15:45;30.77;;;11.65;;
35745;SDS011;21870;42.812;74.628;2022-11-25T10:20:49;39.65;;;13.70;;
35745;SDS011;21870;42.812;74.628;2022-11-25T10:25:49;29.40;;;14.57;;
35745;SDS011;21870;42.812;74.628;2022-11-25T10:28:21;35.70;;;14.45;;
35745;SDS011;21870;42.812;74.628;2022-11-25T10:31:09;33.80;;;14.18;;
35745;SDS011;21870;42.812;74.628;2022-11-25T10:33:50;45.40;;;15.73;;
35745;SDS011;21870;42.812;74.628;2022-11-25T10:36:23;42.70;;;15.35;;
35745;SDS011;21870;42.812;74.628;2022-11-25T10:41:54;35.88;;;16.05;;
35745;SDS011;21870;42.812;74.628;2022-11-25T10:44:32;40.53;;;15.93;;
35745;SDS011;21870;42.812;74.628;2022-11-25T10:50:07;41.53;;;16.38;;
35745;SDS011;21870;42.812;74.628;2022-11-25T10:52:37;39.78;;;16.17;;
35745;SDS011;21870;42.812;74.628;2022-11-25T10:55:33;49.40;;;15.77;;
35745;SDS011;21870;42.812;74.628;2022-11-25T10:58:18;48.10;;;15.80;;
35745;SDS011;21870;42.812;74.628;2022-11-25T11:01:05;46.28;;;17.35;;
35745;SDS011;21870;42.812;74.628;2022-11-25T11:03:43;32.67;;;14.52;;
35745;SDS011;21870;42.812;74.628;2022-11-25T11:09:00;31.98;;;17.65;;
35745;SDS011;21870;42.812;74.628;2022-11-25T11:11:27;37.33;;;19.27;;
35745;SDS011;21870;42.812;74.628;2022-11-25T11:13:57;39.72;;;17.70;;
35745;SDS011;21870;42.812;74.628;2022-11-25T11:16:46;31.55;;;19.52;;
35745;SDS011;21870;42.812;74.628;2022-11-25T11:19:23;39.13;;;19.50;;
35745;SDS011;21870;42.812;74.628;2022-11-25T11:21:52;44.83;;;21.23;;
35745;SDS011;21870;42.812;74.628;2022-11-25T11:24:32;50.10;;;24.80;;
35745;SDS011;21870;42.812;74.628;2022-11-25T11:29:30;53.58;;;24.77;;
35745;SDS011;21870;42.812;74.628;2022-11-25T11:31:57;42.33;;;24.33;;
35745;SDS011;21870;42.812;74.628;2022-11-25T11:34:41;42.50;;;22.98;;
35745;SDS011;21870;42.812;74.628;2022-11-25T11:51:06;48.83;;;26.52;;
35745;SDS011;21870;42.812;74.628;2022-11-25T11:56:08;45.58;;;31.27;;
35745;SDS011;21870;42.812;74.628;2022-11-25T11:58:57;51.17;;;29.95;;
35745;SDS011;21870;42.812;74.628;2022-11-25T12:04:33;37.90;;;27.75;;
35745;SDS011;21870;42.812;74.628;2022-11-25T12:09:49;42.30;;;27.77;;
35745;SDS011;21870;42.812;74.628;2022-11-25T12:15:51;35.22;;;22.25;;
35745;SDS011;21870;42.812;74.628;2022-11-25T12:18:39;37.97;;;25.13;;
35745;SDS011;21870;42.812;74.628;2022-11-25T12:27:12;36.40;;;28.23;;
35745;SDS011;21870;42.812;74.628;2022-11-25T12:29:41;43.38;;;24.33;;
35745;SDS011;21870;42.812;74.628;2022-11-25T12:32:23;39.17;;;23.88;;
35745;SDS011;21870;42.812;74.628;2022-11-25T12:46:04;44.63;;;29.40;;
35745;SDS011;21870;42.812;74.628;2022-11-25T12:48:58;40.80;;;31.38;;
35745;SDS011;21870;42.812;74.628;2022-11-25T12:57:02;42.05;;;33.85;;
35745;SDS011;21870;42.812;74.628;2022-11-25T13:14:41;48.88;;;37.85;;
35745;SDS011;21870;42.812;74.628;2022-11-25T13:17:41;50.40;;;38.67;;
35745;SDS011;21870;42.812;74.628;2022-11-25T13:25:29;52.30;;;37.05;;
35745;SDS011;21870;42.812;74.628;2022-11-25T13:28:00;56.17;;;37.08;;
35745;SDS011;21870;42.812;74.628;2022-11-25T13:35:48;49.38;;;38.58;;
35745;SDS011;21870;42.812;74.628;2022-11-25T13:43:24;57.83;;;41.45;;
35745;SDS011;21870;42.812;74.628;2022-11-25T13:45:50;46.13;;;37.83;;
35745;SDS011;21870;42.812;74.628;2022-11-25T13:48:19;50.33;;;36.90;;
35745;SDS011;21870;42.812;74.628;2022-11-25T13:50:48;42.63;;;32.33;;
35745;SDS011;21870;42.812;74.628;2022-11-25T13:53:31;39.78;;;30.83;;
35745;SDS011;21870;42.812;74.628;2022-11-25T13:56:20;38.78;;;28.15;;
35745;SDS011;21870;42.812;74.628;2022-11-25T14:01:35;23.92;;;21.40;;
35745;SDS011;21870;42.812;74.628;2022-11-25T14:04:06;41.42;;;27.20;;
35745;SDS011;21870;42.812;74.628;2022-11-25T14:09:29;27.02;;;22.88;;
35745;SDS011;21870;42.812;74.628;2022-11-25T14:12:30;30.20;;;22.10;;
35745;SDS011;21870;42.812;74.628;2022-11-25T14:18:18;30.90;;;20.02;;
35745;SDS011;21870;42.812;74.628;2022-11-25T14:26:34;24.35;;;20.25;;
35745;SDS011;21870;42.812;74.628;2022-11-25T14:29:11;31.48;;;22.58;;
35745;SDS011;21870;42.812;74.628;2022-11-25T14:31:57;26.90;;;20.55;;
35745;SDS011;21870;42.812;74.628;2022-11-25T14:34:29;28.30;;;25.23;;
35745;SDS011;21870;42.812;74.628;2022-11-25T14:37:21;31.55;;;25.58;;
35745;SDS011;21870;42.812;74.628;2022-11-25T14:40:39;28.38;;;24.33;;
35745;SDS011;21870;42.812;74.628;2022-11-25T14:43:03;27.23;;;24.38;;
35745;SDS011;21870;42.812;74.628;2022-11-25T14:45:33;28.33;;;25.38;;
35745;SDS011;21870;42.812;74.628;2022-11-25T14:48:15;37.97;;;33.85;;
35745;SDS011;21870;42.812;74.628;2022-11-25T14:50:56;31.35;;;26.88;;
35745;SDS011;21870;42.812;74.628;2022-11-25T14:53:24;31.50;;;28.02;;
35745;SDS011;21870;42.812;74.628;2022-11-25T14:55:51;34.90;;;31.25;;
35745;SDS011;21870;42.812;74.628;2022-11-25T14:58:20;35.95;;;29.10;;
35745;SDS011;21870;42.812;74.628;2022-11-25T15:00:50;31.98;;;28.58;;
35745;SDS011;21870;42.812;74.628;2022-11-25T15:03:23;31.48;;;26.58;;
35745;SDS011;21870;42.812;74.628;2022-11-25T15:05:53;30.77;;;26.55;;
35745;SDS011;21870;42.812;74.628;2022-11-25T15:08:21;31.90;;;28.55;;
35745;SDS011;21870;42.812;74.628;2022-11-25T15:16:03;35.92;;;31.00;;
35745;SDS011;21870;42.812;74.628;2022-11-25T15:18:36;34.17;;;29.75;;
35745;SDS011;21870;42.812;74.628;2022-11-25T15:21:09;32.28;;;28.38;;
35745;SDS011;21870;42.812;74.628;2022-11-25T15:23:39;32.80;;;26.67;;
35745;SDS011;21870;42.812;74.628;2022-11-25T15:26:15;30.88;;;27.58;;
35745;SDS011;21870;42.812;74.628;2022-11-25T15:28:44;42.47;;;29.58;;
35745;SDS011;21870;42.812;74.628;2022-11-25T15:31:15;38.40;;;29.95;;
35745;SDS011;21870;42.812;74.628;2022-11-25T15:33:43;35.60;;;29.95;;
35745;SDS011;21870;42.812;74.628;2022-11-25T15:36:11;42.55;;;32.50;;
35745;SDS011;21870;42.812;74.628;2022-11-25T15:38:41;47.17;;;38.40;;
35745;SDS011;21870;42.812;74.628;2022-11-25T15:41:20;60.80;;;49.08;;
35745;SDS011;21870;42.812;74.628;2022-11-25T15:43:58;154.73;;;137.73;;
35745;SDS011;21870;42.812;74.628;2022-11-25T15:46:26;68.43;;;56.80;;
35745;SDS011;21870;42.812;74.628;2022-11-25T15:48:55;64.22;;;50.08;;
35745;SDS011;21870;42.812;74.628;2022-11-25T15:56:46;52.10;;;46.40;;
35745;SDS011;21870;42.812;74.628;2022-11-25T15:59:40;59.20;;;47.72;;
35745;SDS011;21870;42.812;74.628;2022-11-25T16:05:12;53.95;;;42.35;;
35745;SDS011;21870;42.812;74.628;2022-11-25T16:07:39;53.20;;;43.80;;
35745;SDS011;21870;42.812;74.628;2022-11-25T16:18:35;55.70;;;40.97;;
35745;SDS011;21870;42.812;74.628;2022-11-25T16:21:09;47.30;;;39.65;;
35745;SDS011;21870;42.812;74.628;2022-11-25T16:24:26;48.33;;;39.47;;
35745;SDS011;21870;42.812;74.628;2022-11-25T16:26:39;45.30;;;38.47;;
35745;SDS011;21870;42.812;74.628;2022-11-25T16:31:57;49.38;;;38.92;;
35745;SDS011;21870;42.812;74.628;2022-11-25T16:34:25;52.20;;;42.33;;
35745;SDS011;21870;42.812;74.628;2022-11-25T16:36:52;51.50;;;43.90;;
35745;SDS011;21870;42.812;74.628;2022-11-25T16:39:21;63.13;;;46.55;;
35745;SDS011;21870;42.812;74.628;2022-11-25T16:41:53;61.05;;;44.75;;
35745;SDS011;21870;42.812;74.628;2022-11-25T16:44:22;59.15;;;45.70;;
35745;SDS011;21870;42.812;74.628;2022-11-25T16:46:49;52.72;;;42.70;;
35745;SDS011;21870;42.812;74.628;2022-11-25T16:49:16;54.80;;;40.53;;
35745;SDS011;21870;42.812;74.628;2022-11-25T16:51:44;46.75;;;40.53;;
35745;SDS011;21870;42.812;74.628;2022-11-25T16:54:10;58.95;;;44.50;;
35745;SDS011;21870;42.812;74.628;2022-11-25T16:56:40;65.57;;;46.63;;
35745;SDS011;21870;42.812;74.628;2022-11-25T16:59:12;57.47;;;45.10;;
35745;SDS011;21870;42.812;74.628;2022-11-25T17:01:42;59.20;;;48.53;;
35745;SDS011;21870;42.812;74.628;2022-11-25T17:04:12;59.25;;;46.80;;
35745;SDS011;21870;42.812;74.628;2022-11-25T17:06:39;62.83;;;51.22;;
35745;SDS011;21870;42.812;74.628;2022-11-25T17:09:06;59.78;;;46.92;;
35745;SDS011;21870;42.812;74.628;2022-11-25T17:11:34;77.03;;;58.30;;
35745;SDS011;21870;42.812;74.628;2022-11-25T17:14:11;83.07;;;61.72;;
35745;SDS011;21870;42.812;74.628;2022-11-25T17:16:43;66.35;;;49.88;;
35745;SDS011;21870;42.812;74.628;2022-11-25T17:19:12;58.50;;;47.50;;
35745;SDS011;21870;42.812;74.628;2022-11-25T17:21:40;61.58;;;47.35;;